Terminal Aerodrome Forecast
Issued by NWS

Home | Current Version | Previous Version | Text Only | Print | Product List | Glossary On
Versions: 1 2 3 4 5 6 7 8 9 10 11 12 13
237
FTUS42 KMLB 261720
TAFFPR
TAF
KFPR 261720Z 2618/2718 11008KT P6SM SCT030 SCT300
     FM261900 11007KT P6SM SCT050 SCT300
     FM270000 15005KT P6SM SCT050 BKN300
     FM270600 VRB04KT P6SM SKC=

USA.gov is the U.S. government's official web portal to all federal, state and local government web resources and services.